Time;durP1;ratioP1;P1;durP2;ratioP2;P2;SDS_P1;SDS_P2;PMS_P1;PMS_P2;Temp;Humidity;BMP_temperature;BMP_pressure;BME280_temperature;BME280_humidity;BME280_pressure;Samples;Min_cycle;Max_cycle;Signal;HPM_P1;HPM_P2
2022/03/17 00:00:09;;;;;;;;;;;23.10;50.10;;;;;;5100701;28;1010;-43
2022/03/17 00:02:37;;;;;;;;;;;23.00;49.90;;;;;;5100150;28;956;-43
2022/03/17 00:05:04;;;;;;;;;;;23.00;49.60;;;;;;5100148;28;972;-42
2022/03/17 00:07:31;;;;;;;;;;;23.00;49.50;;;;;;5099348;28;929;-44
2022/03/17 00:09:58;;;;;;;;;;;23.00;49.60;;;;;;5101295;28;994;-37
2022/03/17 00:12:24;;;;;;;;;;;23.00;49.80;;;;;;5101139;28;1972;-38
2022/03/17 00:14:52;;;;;;;;;;;23.00;50.00;;;;;;5099924;28;1009;-39
2022/03/17 00:17:19;;;;;;;;;;;23.00;49.80;;;;;;5100902;28;941;-41
2022/03/17 00:19:46;;;;;;;;;;;23.00;50.10;;;;;;5100546;28;1045;-40
2022/03/17 00:22:15;;;;;;;;;;;22.90;50.00;;;;;;5100675;28;936;-40
2022/03/17 00:24:42;;;;;;;;;;;22.90;50.30;;;;;;5100739;28;940;-39
2022/03/17 00:27:09;;;;;;;;;;;22.90;50.20;;;;;;5101208;28;987;-39
2022/03/17 00:29:36;;;;;;;;;;;22.90;50.40;;;;;;5100501;28;941;-45
2022/03/17 00:32:05;;;;;;;;;;;22.90;50.20;;;;;;5100563;28;1910;-39
2022/03/17 00:34:32;;;;;;;;;;;22.90;50.40;;;;;;5100325;28;979;-42
2022/03/17 00:36:59;;;;;;;;;;;22.90;50.60;;;;;;5100380;28;998;-40
2022/03/17 00:39:26;;;;;;;;;;;22.90;50.60;;;;;;5099839;28;984;-40
2022/03/17 00:41:52;;;;;;;;;;;22.90;50.60;;;;;;5100869;28;972;-42
2022/03/17 00:44:19;;;;;;;;;;;22.90;50.40;;;;;;5100174;28;955;-45
2022/03/17 00:46:46;;;;;;;;;;;22.90;50.60;;;;;;5100490;28;932;-40
2022/03/17 00:49:14;;;;;;;;;;;22.90;50.40;;;;;;5100107;28;1288;-38
2022/03/17 00:51:41;;;;;;;;;;;22.90;50.60;;;;;;5100119;28;1005;-37
2022/03/17 00:54:07;;;;;;;;;;;23.00;50.50;;;;;;5100138;28;936;-41
2022/03/17 00:56:35;;;;;;;;;;;22.90;50.30;;;;;;5100376;28;1003;-41
2022/03/17 00:59:01;;;;;;;;;;;22.90;50.30;;;;;;5099460;28;1028;-38
2022/03/17 01:01:28;;;;;;;;;;;23.00;50.50;;;;;;5100772;28;1063;-39
2022/03/17 01:03:55;;;;;;;;;;;23.00;50.40;;;;;;5099788;28;940;-40
2022/03/17 01:06:23;;;;;;;;;;;23.00;50.30;;;;;;5100378;28;991;-38
2022/03/17 01:08:50;;;;;;;;;;;23.00;50.30;;;;;;5100337;28;1003;-41
2022/03/17 01:11:17;;;;;;;;;;;23.00;50.40;;;;;;5100106;28;1019;-41
2022/03/17 01:13:44;;;;;;;;;;;23.00;50.30;;;;;;5099946;28;1981;-39
2022/03/17 01:16:11;;;;;;;;;;;23.00;50.50;;;;;;5100144;28;1002;-41
2022/03/17 01:18:37;;;;;;;;;;;23.10;50.40;;;;;;5099736;28;995;-40
2022/03/17 01:21:04;;;;;;;;;;;23.10;50.20;;;;;;5099623;28;980;-41
2022/03/17 01:23:32;;;;;;;;;;;23.10;50.30;;;;;;5099699;28;940;-41
2022/03/17 01:25:59;;;;;;;;;;;23.10;50.00;;;;;;5099181;28;981;-38
2022/03/17 01:28:25;;;;;;;;;;;23.10;50.00;;;;;;5099412;28;955;-38
2022/03/17 01:30:53;;;;;;;;;;;23.10;50.30;;;;;;5099489;28;964;-39
2022/03/17 01:33:20;;;;;;;;;;;23.10;50.30;;;;;;5099580;28;1984;-41
2022/03/17 01:35:47;;;;;;;;;;;23.00;50.30;;;;;;5099354;28;1839;-39
2022/03/17 01:38:13;;;;;;;;;;;23.10;50.30;;;;;;5099429;28;1029;-41
2022/03/17 01:40:42;;;;;;;;;;;23.10;50.30;;;;;;5099912;28;1012;-39
2022/03/17 01:43:09;;;;;;;;;;;23.00;50.40;;;;;;5099381;28;1026;-39
2022/03/17 01:45:36;;;;;;;;;;;23.00;50.40;;;;;;5099661;28;1143;-41
2022/03/17 01:48:03;;;;;;;;;;;23.00;50.40;;;;;;5098549;28;1022;-41
2022/03/17 01:50:29;;;;;;;;;;;23.00;50.40;;;;;;5098822;28;952;-41
2022/03/17 01:52:57;;;;;;;;;;;23.00;50.50;;;;;;5098493;28;1894;-39
2022/03/17 01:55:25;;;;;;;;;;;23.00;50.50;;;;;;5099128;28;983;-38
2022/03/17 01:57:53;;;;;;;;;;;23.00;50.40;;;;;;5099395;28;1015;-41
2022/03/17 02:00:21;;;;;;;;;;;23.00;50.40;;;;;;5099007;28;1011;-40
2022/03/17 02:02:48;;;;;;;;;;;22.90;50.40;;;;;;5099045;28;1028;-41
2022/03/17 02:05:16;;;;;;;;;;;22.90;50.40;;;;;;5098439;28;1011;-40
2022/03/17 02:07:46;;;;;;;;;;;23.00;50.30;;;;;;5099308;28;936;-41
2022/03/17 02:10:13;;;;;;;;;;;22.90;50.50;;;;;;5097934;28;1111;-41
2022/03/17 02:15:26;;;;;;;;;;;23.00;50.30;;;;;;5097601;28;1023;-41
2022/03/17 02:17:53;;;;;;;;;;;23.00;50.30;;;;;;5098484;28;939;-41
2022/03/17 02:20:20;;;;;;;;;;;23.00;50.40;;;;;;5098495;28;945;-41
2022/03/17 02:22:47;;;;;;;;;;;23.00;50.30;;;;;;5098653;28;1047;-41
2022/03/17 02:25:36;;;;;;;;;;;23.00;50.40;;;;;;5098616;28;1058;-41
2022/03/17 02:28:04;;;;;;;;;;;23.00;50.40;;;;;;5099002;28;912;-39
2022/03/17 02:30:31;;;;;;;;;;;23.00;50.40;;;;;;5098265;28;1840;-41
2022/03/17 02:33:00;;;;;;;;;;;22.90;50.20;;;;;;5097410;28;1971;-37
2022/03/17 02:35:27;;;;;;;;;;;22.90;50.40;;;;;;5098769;28;966;-38
2022/03/17 02:37:54;;;;;;;;;;;22.90;50.40;;;;;;5098541;28;1115;-39
2022/03/17 02:40:25;;;;;;;;;;;22.90;50.60;;;;;;5098411;28;992;-41
2022/03/17 02:42:52;;;;;;;;;;;22.90;50.60;;;;;;5098486;28;1007;-41
2022/03/17 02:45:18;;;;;;;;;;;22.80;50.50;;;;;;5098955;28;1000;-41
2022/03/17 02:47:45;;;;;;;;;;;22.80;50.70;;;;;;5098339;28;1026;-40
2022/03/17 02:50:12;;;;;;;;;;;22.80;50.70;;;;;;5097530;28;1142;-37
2022/03/17 02:52:39;;;;;;;;;;;22.80;50.70;;;;;;5098310;28;1984;-38
2022/03/17 02:55:08;;;;;;;;;;;22.80;50.50;;;;;;5098597;28;1010;-38
2022/03/17 02:57:36;;;;;;;;;;;22.80;50.70;;;;;;5098486;28;948;-40
2022/03/17 03:00:04;;;;;;;;;;;22.70;50.80;;;;;;5097922;28;973;-37
2022/03/17 03:02:30;;;;;;;;;;;22.70;50.80;;;;;;5098258;28;992;-38
2022/03/17 03:04:57;;;;;;;;;;;22.70;50.90;;;;;;5097950;28;987;-39
2022/03/17 03:07:24;;;;;;;;;;;22.70;51.00;;;;;;5098513;28;975;-41
2022/03/17 03:13:06;;;;;;;;;;;22.60;50.90;;;;;;5097469;28;1894;-38
2022/03/17 03:15:32;;;;;;;;;;;22.60;51.00;;;;;;5097185;28;1031;-39
2022/03/17 03:17:59;;;;;;;;;;;22.60;51.10;;;;;;5097798;28;1039;-38
2022/03/17 03:20:26;;;;;;;;;;;22.60;51.10;;;;;;5097551;28;940;-38
2022/03/17 03:22:53;;;;;;;;;;;22.60;51.10;;;;;;5101256;28;1006;-41
2022/03/17 03:25:19;;;;;;;;;;;22.60;51.00;;;;;;5101567;28;987;-37
2022/03/17 03:27:46;;;;;;;;;;;22.60;51.20;;;;;;5101945;28;948;-40
2022/03/17 03:30:15;;;;;;;;;;;22.60;51.10;;;;;;5101509;28;1002;-41
2022/03/17 03:32:42;;;;;;;;;;;22.60;51.20;;;;;;5101124;28;1974;-39
2022/03/17 03:37:50;;;;;;;;;;;22.60;51.00;;;;;;5101355;28;919;-42
2022/03/17 03:40:16;;;;;;;;;;;22.60;51.20;;;;;;5102131;28;1084;-38
2022/03/17 03:42:43;;;;;;;;;;;22.60;51.20;;;;;;5101495;28;961;-38
2022/03/17 03:45:10;;;;;;;;;;;22.60;51.10;;;;;;5101299;28;1008;-40
2022/03/17 03:47:38;;;;;;;;;;;22.60;51.10;;;;;;5101026;28;1035;-42
2022/03/17 03:50:05;;;;;;;;;;;22.60;52.30;;;;;;5101281;28;1329;-39
2022/03/17 03:52:32;;;;;;;;;;;22.60;51.10;;;;;;5100874;28;1386;-37
2022/03/17 03:54:58;;;;;;;;;;;22.60;51.10;;;;;;5100834;28;1898;-37
2022/03/17 03:57:25;;;;;;;;;;;22.60;51.10;;;;;;5101241;28;1074;-39
2022/03/17 03:59:52;;;;;;;;;;;22.60;51.10;;;;;;5101313;28;1041;-42
2022/03/17 04:02:18;;;;;;;;;;;22.60;51.10;;;;;;5100833;28;960;-41
2022/03/17 04:04:46;;;;;;;;;;;22.60;51.10;;;;;;5100750;28;989;-39
2022/03/17 04:07:13;;;;;;;;;;;22.50;51.10;;;;;;5100101;28;951;-39
2022/03/17 04:09:41;;;;;;;;;;;22.50;51.20;;;;;;5099962;28;1026;-37
2022/03/17 04:12:09;;;;;;;;;;;22.50;51.20;;;;;;5100098;28;981;-38
2022/03/17 04:14:36;;;;;;;;;;;22.50;51.20;;;;;;5100273;28;1980;-40
2022/03/17 04:17:02;;;;;;;;;;;22.50;51.20;;;;;;5100590;28;956;-40
2022/03/17 04:19:29;;;;;;;;;;;22.50;51.20;;;;;;5099899;28;1888;-38
2022/03/17 04:21:57;;;;;;;;;;;22.50;51.40;;;;;;5099936;28;1039;-40
2022/03/17 04:24:24;;;;;;;;;;;22.50;51.40;;;;;;5100099;28;1035;-41
2022/03/17 04:26:52;;;;;;;;;;;22.50;51.40;;;;;;5099831;28;1051;-42
2022/03/17 04:29:18;;;;;;;;;;;22.40;51.40;;;;;;5099792;28;981;-40
2022/03/17 04:31:46;;;;;;;;;;;22.40;51.40;;;;;;5098846;28;991;-41
2022/03/17 04:34:12;;;;;;;;;;;22.50;51.50;;;;;;5098402;28;1984;-41
2022/03/17 04:36:39;;;;;;;;;;;22.40;51.30;;;;;;5098828;28;1020;-38
2022/03/17 04:39:10;;;;;;;;;;;22.40;51.40;;;;;;5098226;28;1015;-40
2022/03/17 04:41:37;;;;;;;;;;;22.50;51.20;;;;;;5097617;28;952;-41
2022/03/17 04:44:04;;;;;;;;;;;22.40;51.40;;;;;;5098718;28;1143;-42
2022/03/17 04:46:31;;;;;;;;;;;22.40;51.40;;;;;;5098492;28;988;-38
2022/03/17 04:48:57;;;;;;;;;;;22.40;51.50;;;;;;5098145;28;1067;-41
2022/03/17 04:51:24;;;;;;;;;;;22.40;51.30;;;;;;5098439;28;944;-38
2022/03/17 04:53:51;;;;;;;;;;;22.40;51.30;;;;;;5098030;28;1901;-40
2022/03/17 04:56:19;;;;;;;;;;;22.40;51.20;;;;;;5098608;28;1148;-42
2022/03/17 04:58:46;;;;;;;;;;;22.40;51.40;;;;;;5098156;28;1004;-39
2022/03/17 05:01:14;;;;;;;;;;;22.40;51.40;;;;;;5098063;28;1019;-40
2022/03/17 05:03:41;;;;;;;;;;;22.40;51.50;;;;;;5098345;28;1032;-37
2022/03/17 05:06:11;;;;;;;;;;;22.30;51.40;;;;;;5098629;28;980;-38
2022/03/17 05:08:38;;;;;;;;;;;22.40;51.60;;;;;;5097883;28;999;-41
2022/03/17 05:11:06;;;;;;;;;;;22.40;51.60;;;;;;5098325;28;942;-37
2022/03/17 05:13:35;;;;;;;;;;;22.40;51.50;;;;;;5098257;28;1906;-40
2022/03/17 05:16:02;;;;;;;;;;;22.40;51.50;;;;;;5099194;28;977;-38
2022/03/17 05:18:29;;;;;;;;;;;22.40;51.60;;;;;;5098357;28;1013;-38
2022/03/17 05:20:56;;;;;;;;;;;22.40;52.70;;;;;;5098284;28;1000;-41
2022/03/17 05:23:23;;;;;;;;;;;22.40;51.60;;;;;;5097951;28;1055;-39
2022/03/17 05:25:50;;;;;;;;;;;22.40;51.50;;;;;;5096951;28;983;-39
2022/03/17 05:28:17;;;;;;;;;;;22.30;51.60;;;;;;5096695;28;1013;-39
2022/03/17 05:30:46;;;;;;;;;;;22.30;51.50;;;;;;5097744;28;957;-38
2022/03/17 05:33:13;;;;;;;;;;;22.40;51.60;;;;;;5097131;28;1992;-38
2022/03/17 05:35:41;;;;;;;;;;;22.40;51.50;;;;;;5097760;28;1027;-38
2022/03/17 05:38:07;;;;;;;;;;;22.40;51.60;;;;;;5096660;28;1035;-38
2022/03/17 05:40:34;;;;;;;;;;;22.30;51.50;;;;;;5097714;28;1012;-39
2022/03/17 05:43:02;;;;;;;;;;;22.30;51.40;;;;;;5097800;28;983;-39
2022/03/17 05:45:29;;;;;;;;;;;22.30;51.50;;;;;;5097459;28;955;-41
2022/03/17 05:47:57;;;;;;;;;;;22.40;51.50;;;;;;5098041;28;987;-41
2022/03/17 05:50:25;;;;;;;;;;;22.40;51.50;;;;;;5094122;28;1051;-41
2022/03/17 05:52:52;;;;;;;;;;;22.30;51.40;;;;;;5095663;28;983;-41
2022/03/17 05:55:20;;;;;;;;;;;22.40;51.40;;;;;;5096008;28;1905;-40
2022/03/17 05:57:48;;;;;;;;;;;22.40;51.50;;;;;;5096300;28;951;-38
2022/03/17 06:00:16;;;;;;;;;;;22.40;51.40;;;;;;5096489;28;1464;-40
2022/03/17 06:02:43;;;;;;;;;;;22.40;51.50;;;;;;5096406;28;932;-38
2022/03/17 06:05:12;;;;;;;;;;;22.40;51.30;;;;;;5096817;28;1031;-38
2022/03/17 06:07:39;;;;;;;;;;;22.40;51.50;;;;;;5095594;28;1001;-41
2022/03/17 06:10:07;;;;;;;;;;;22.30;51.30;;;;;;5097482;28;971;-41
2022/03/17 06:12:34;;;;;;;;;;;22.40;51.40;;;;;;5096529;28;1210;-37
2022/03/17 06:15:01;;;;;;;;;;;22.40;51.30;;;;;;5094028;28;1906;-40
2022/03/17 06:17:38;;;;;;;;;;;22.40;51.10;;;;;;5094889;28;982;-39
2022/03/17 06:20:05;;;;;;;;;;;22.40;50.90;;;;;;5095370;28;993;-38
2022/03/17 06:22:33;;;;;;;;;;;22.30;50.90;;;;;;5093648;28;1004;-40
2022/03/17 06:25:00;;;;;;;;;;;22.30;51.10;;;;;;5094203;28;1016;-40
2022/03/17 06:27:27;;;;;;;;;;;22.40;51.10;;;;;;5093241;28;1016;-40
2022/03/17 06:29:54;;;;;;;;;;;22.40;52.20;;;;;;5093355;28;1019;-39
2022/03/17 06:32:20;;;;;;;;;;;22.40;51.00;;;;;;5092765;28;1012;-40
2022/03/17 06:34:47;;;;;;;;;;;22.40;51.30;;;;;;5091535;28;1981;-38
2022/03/17 06:37:14;;;;;;;;;;;22.40;51.10;;;;;;5092375;28;974;-39
2022/03/17 06:39:42;;;;;;;;;;;22.40;51.30;;;;;;5093358;28;1040;-39
2022/03/17 06:42:09;;;;;;;;;;;22.40;51.30;;;;;;5094013;28;1005;-40
2022/03/17 06:44:35;;;;;;;;;;;22.40;51.00;;;;;;5095076;28;996;-37
2022/03/17 06:47:02;;;;;;;;;;;22.40;51.10;;;;;;5093996;28;992;-42
2022/03/17 06:49:28;;;;;;;;;;;22.50;51.40;;;;;;5094028;28;1055;-42
2022/03/17 06:51:56;;;;;;;;;;;22.50;50.80;;;;;;5094635;28;1005;-40
2022/03/17 06:54:22;;;;;;;;;;;22.50;50.90;;;;;;5094726;28;2000;-42
2022/03/17 06:56:50;;;;;;;;;;;22.50;50.90;;;;;;5100996;28;1062;-41
2022/03/17 06:59:17;;;;;;;;;;;22.50;50.80;;;;;;5101530;28;1034;-45
2022/03/17 07:01:44;;;;;;;;;;;22.60;50.90;;;;;;5099984;28;1437;-45
2022/03/17 07:04:11;;;;;;;;;;;22.50;50.90;;;;;;5101644;28;917;-40
2022/03/17 07:06:37;;;;;;;;;;;22.70;51.30;;;;;;5101322;28;992;-39
2022/03/17 07:09:04;;;;;;;;;;;22.70;51.00;;;;;;5100444;28;1101;-41
2022/03/17 07:11:31;;;;;;;;;;;22.60;50.90;;;;;;5101189;28;961;-41
2022/03/17 07:13:59;;;;;;;;;;;22.50;50.90;;;;;;5100666;28;1901;-37
2022/03/17 07:16:26;;;;;;;;;;;22.50;51.20;;;;;;5099774;28;965;-38
2022/03/17 07:18:52;;;;;;;;;;;22.40;51.30;;;;;;5099172;28;1011;-40
2022/03/17 07:21:19;;;;;;;;;;;22.40;51.20;;;;;;5099661;28;948;-39
2022/03/17 07:23:46;;;;;;;;;;;22.40;51.30;;;;;;5098603;28;973;-42
2022/03/17 07:26:13;;;;;;;;;;;22.40;51.30;;;;;;5098711;28;1753;-38
2022/03/17 07:28:39;;;;;;;;;;;22.40;51.50;;;;;;5099572;28;979;-38
2022/03/17 07:31:08;;;;;;;;;;;22.40;51.40;;;;;;5099194;28;936;-41
2022/03/17 07:33:34;;;;;;;;;;;22.40;51.50;;;;;;5099802;28;939;-41
2022/03/17 07:36:01;;;;;;;;;;;22.30;51.40;;;;;;5099571;28;1980;-38
2022/03/17 07:38:28;;;;;;;;;;;22.30;51.50;;;;;;5099537;28;1453;-39
2022/03/17 07:40:54;;;;;;;;;;;22.30;51.40;;;;;;5098647;28;1098;-39
2022/03/17 07:43:23;;;;;;;;;;;22.30;51.60;;;;;;5100068;28;982;-37
2022/03/17 07:45:53;;;;;;;;;;;22.30;51.50;;;;;;5100062;28;977;-38
2022/03/17 07:48:21;;;;;;;;;;;22.30;51.30;;;;;;5099835;28;1000;-40
2022/03/17 07:50:50;;;;;;;;;;;22.30;51.50;;;;;;5099593;28;1007;-39
2022/03/17 07:53:17;;;;;;;;;;;22.30;51.40;;;;;;5100827;28;1005;-44
2022/03/17 07:55:43;;;;;;;;;;;22.30;51.60;;;;;;5100609;28;1901;-39
2022/03/17 07:58:11;;;;;;;;;;;22.30;51.50;;;;;;5099765;28;935;-39
2022/03/17 08:00:39;;;;;;;;;;;22.20;51.50;;;;;;5101244;28;1047;-37
2022/03/17 08:03:06;;;;;;;;;;;22.30;51.50;;;;;;5101881;28;1034;-39
2022/03/17 08:05:34;;;;;;;;;;;22.30;51.50;;;;;;5102618;28;1074;-39
2022/03/17 08:08:01;;;;;;;;;;;22.30;51.50;;;;;;5098161;28;916;-37
2022/03/17 08:10:29;;;;;;;;;;;22.20;51.50;;;;;;5097158;28;991;-37
2022/03/17 08:12:55;;;;;;;;;;;22.20;51.50;;;;;;5098048;28;980;-40
2022/03/17 08:15:22;;;;;;;;;;;22.20;51.40;;;;;;5098172;28;1972;-38
2022/03/17 08:17:49;;;;;;;;;;;22.30;51.50;;;;;;5098371;28;998;-38
2022/03/17 08:20:16;;;;;;;;;;;22.20;51.40;;;;;;5096038;28;944;-37
2022/03/17 08:22:44;;;;;;;;;;;22.20;51.40;;;;;;5097300;28;1016;-37
2022/03/17 08:25:11;;;;;;;;;;;22.20;51.40;;;;;;5097888;28;1012;-38
2022/03/17 08:27:38;;;;;;;;;;;22.30;51.40;;;;;;5097705;28;1011;-39
2022/03/17 08:30:05;;;;;;;;;;;22.20;51.40;;;;;;5096751;28;1147;-38
2022/03/17 08:32:32;;;;;;;;;;;22.20;51.40;;;;;;5096337;28;988;-37
2022/03/17 08:34:59;;;;;;;;;;;22.20;51.40;;;;;;5096752;28;1878;-37
2022/03/17 08:37:25;;;;;;;;;;;22.20;51.40;;;;;;5096564;28;1023;-40
2022/03/17 08:39:54;;;;;;;;;;;22.20;51.40;;;;;;5096381;28;1004;-37
2022/03/17 08:42:20;;;;;;;;;;;22.20;51.40;;;;;;5095556;28;980;-41
2022/03/17 08:44:47;;;;;;;;;;;22.20;51.30;;;;;;5095535;28;975;-39
2022/03/17 08:49:58;;;;;;;;;;;22.20;51.30;;;;;;5094321;28;953;-41
2022/03/17 08:52:24;;;;;;;;;;;22.20;51.30;;;;;;5096166;28;1000;-37
2022/03/17 08:54:51;;;;;;;;;;;22.20;51.20;;;;;;5095220;28;1975;-40
2022/03/17 08:57:19;;;;;;;;;;;22.20;51.30;;;;;;5094642;28;1012;-40
2022/03/17 08:59:46;;;;;;;;;;;22.20;51.30;;;;;;5094709;28;1000;-37
2022/03/17 09:02:13;;;;;;;;;;;22.20;51.40;;;;;;5093678;28;1016;-39
2022/03/17 09:04:39;;;;;;;;;;;22.20;51.40;;;;;;5094406;28;1875;-41
2022/03/17 09:07:06;;;;;;;;;;;22.20;51.20;;;;;;5094448;28;1003;-39
2022/03/17 09:09:34;;;;;;;;;;;22.20;51.30;;;;;;5095873;28;1007;-39
2022/03/17 09:12:05;;;;;;;;;;;22.20;51.20;;;;;;5095100;28;1047;-40
2022/03/17 09:14:33;;;;;;;;;;;22.20;51.20;;;;;;5093944;28;1898;-42
2022/03/17 09:17:01;;;;;;;;;;;22.20;51.20;;;;;;5095302;28;973;-43
2022/03/17 09:19:28;;;;;;;;;;;22.20;51.20;;;;;;5093840;28;936;-41
2022/03/17 09:21:54;;;;;;;;;;;22.20;51.20;;;;;;5095273;28;925;-44
2022/03/17 09:24:21;;;;;;;;;;;22.10;51.20;;;;;;5094816;28;924;-45
2022/03/17 09:26:48;;;;;;;;;;;22.10;51.20;;;;;;5095685;28;1035;-43
2022/03/17 09:29:16;;;;;;;;;;;22.20;51.20;;;;;;5094630;28;1020;-45
2022/03/17 09:31:44;;;;;;;;;;;22.10;51.20;;;;;;5095005;28;955;-41
2022/03/17 09:34:12;;;;;;;;;;;22.10;51.30;;;;;;5095773;28;944;-44
2022/03/17 09:36:39;;;;;;;;;;;22.10;51.20;;;;;;5095241;28;1987;-42
2022/03/17 09:41:52;;;;;;;;;;;22.10;51.20;;;;;;5058881;28;1142;-44
2022/03/17 09:44:19;;;;;;;;;;;22.10;51.20;;;;;;5094657;28;969;-43
2022/03/17 09:46:48;;;;;;;;;;;22.20;51.40;;;;;;5094282;28;1017;-42
2022/03/17 09:49:15;;;;;;;;;;;22.10;51.30;;;;;;5094503;28;1750;-42
2022/03/17 09:51:43;;;;;;;;;;;22.10;51.20;;;;;;5093645;28;1031;-43
2022/03/17 09:54:10;;;;;;;;;;;22.10;51.20;;;;;;5093779;28;1017;-44
2022/03/17 09:56:37;;;;;;;;;;;22.10;51.20;;;;;;5092225;28;1974;-41
2022/03/17 09:59:06;;;;;;;;;;;22.10;51.20;;;;;;5093192;28;1005;-43
2022/03/17 10:01:33;;;;;;;;;;;22.10;51.30;;;;;;5093583;28;945;-42
2022/03/17 10:04:02;;;;;;;;;;;22.20;51.30;;;;;;5092590;28;986;-40
2022/03/17 10:06:30;;;;;;;;;;;22.10;51.10;;;;;;5091706;28;932;-42
2022/03/17 10:08:57;;;;;;;;;;;22.10;51.20;;;;;;5093068;28;1104;-43
2022/03/17 10:11:29;;;;;;;;;;;22.10;51.10;;;;;;5091888;28;997;-43
2022/03/17 10:13:57;;;;;;;;;;;22.10;51.20;;;;;;5091379;28;1014;-43
2022/03/17 10:16:26;;;;;;;;;;;22.10;51.20;;;;;;5092503;28;1991;-42
2022/03/17 10:18:56;;;;;;;;;;;22.10;51.20;;;;;;5093798;28;1011;-39
2022/03/17 10:21:26;;;;;;;;;;;22.10;51.30;;;;;;5091617;28;984;-40
2022/03/17 10:23:54;;;;;;;;;;;22.10;51.10;;;;;;5092233;28;895;-41
2022/03/17 10:26:49;;;;;;;;;;;22.10;51.20;;;;;;5092065;28;992;-39
2022/03/17 10:29:17;;;;;;;;;;;22.10;51.10;;;;;;5045650;28;1786;-41
2022/03/17 10:31:49;;;;;;;;;;;22.10;51.10;;;;;;5092318;28;1030;-38
2022/03/17 10:34:16;;;;;;;;;;;22.10;52.30;;;;;;5093079;28;1023;-39
2022/03/17 10:36:46;;;;;;;;;;;22.10;51.10;;;;;;5091264;28;2054;-39
2022/03/17 10:39:13;;;;;;;;;;;22.10;51.10;;;;;;5093659;28;913;-39
2022/03/17 10:41:41;;;;;;;;;;;22.10;51.20;;;;;;5093803;28;973;-38
2022/03/17 10:44:10;;;;;;;;;;;22.10;51.20;;;;;;5093613;28;1077;-42
2022/03/17 10:46:37;;;;;;;;;;;22.10;51.10;;;;;;5092467;28;888;-40
2022/03/17 10:49:05;;;;;;;;;;;22.10;51.10;;;;;;5092910;28;1150;-39
2022/03/17 10:51:36;;;;;;;;;;;22.10;51.10;;;;;;5092492;28;1010;-39
2022/03/17 10:54:09;;;;;;;;;;;22.10;51.10;;;;;;5092687;28;1673;-38
2022/03/17 10:56:36;;;;;;;;;;;22.10;51.10;;;;;;5092526;28;1988;-40
2022/03/17 10:59:04;;;;;;;;;;;22.10;51.10;;;;;;5092369;28;928;-41
2022/03/17 11:01:39;;;;;;;;;;;22.10;51.10;;;;;;5093515;28;1013;-39
2022/03/17 11:04:06;;;;;;;;;;;22.10;51.10;;;;;;5093249;28;924;-39
2022/03/17 11:06:33;;;;;;;;;;;22.10;51.00;;;;;;5092770;28;1879;-42
2022/03/17 11:09:01;;;;;;;;;;;22.10;51.10;;;;;;5092189;28;1008;-39
2022/03/17 11:11:30;;;;;;;;;;;22.10;51.00;;;;;;5092706;28;937;-38
2022/03/17 11:13:57;;;;;;;;;;;22.10;51.10;;;;;;5092335;28;986;-38
2022/03/17 11:16:30;;;;;;;;;;;22.10;51.00;;;;;;5093292;28;1902;-40
2022/03/17 11:22:05;;;;;;;;;;;22.10;50.90;;;;;;5093348;28;892;-42
2022/03/17 11:27:48;;;;;;;;;;;22.10;50.90;;;;;;5095559;28;1212;-42
2022/03/17 11:30:15;;;;;;;;;;;22.20;51.00;;;;;;5092706;28;1155;-39
2022/03/17 11:32:49;;;;;;;;;;;22.10;50.90;;;;;;5092235;28;1037;-41
2022/03/17 11:35:18;;;;;;;;;;;22.10;50.90;;;;;;5082936;28;1902;-39
2022/03/17 11:37:47;;;;;;;;;;;22.10;50.90;;;;;;5074014;28;1036;-43
2022/03/17 11:40:14;;;;;;;;;;;22.10;50.80;;;;;;5074288;28;842;-42
2022/03/17 11:42:42;;;;;;;;;;;22.10;50.90;;;;;;5075379;28;873;-41
2022/03/17 11:45:11;;;;;;;;;;;22.10;50.90;;;;;;5078089;28;969;-39
2022/03/17 11:47:39;;;;;;;;;;;22.20;50.90;;;;;;5076489;28;1015;-39
2022/03/17 11:50:25;;;;;;;;;;;22.20;50.80;;;;;;5077178;28;1225;-38
2022/03/17 11:52:52;;;;;;;;;;;22.20;50.80;;;;;;5076489;28;978;-41
2022/03/17 11:55:34;;;;;;;;;;;22.20;50.90;;;;;;5075230;28;1989;-38
2022/03/17 11:58:19;;;;;;;;;;;22.10;50.90;;;;;;5071204;28;1313;-43
2022/03/17 12:00:47;;;;;;;;;;;22.20;50.90;;;;;;5073755;28;956;-39
2022/03/17 12:03:14;;;;;;;;;;;22.10;50.90;;;;;;5073826;28;1015;-38
2022/03/17 12:05:42;;;;;;;;;;;22.10;50.90;;;;;;5073384;28;1839;-41
2022/03/17 12:08:09;;;;;;;;;;;22.10;50.90;;;;;;5074213;28;1011;-42
2022/03/17 12:10:56;;;;;;;;;;;22.10;50.90;;;;;;5073781;28;944;-39
2022/03/17 12:13:24;;;;;;;;;;;22.10;50.80;;;;;;5074314;28;1116;-39
2022/03/17 12:15:56;;;;;;;;;;;22.10;50.90;;;;;;5072883;28;1980;-39
2022/03/17 12:18:23;;;;;;;;;;;22.10;50.90;;;;;;5073695;28;1031;-39
2022/03/17 12:20:52;;;;;;;;;;;22.10;50.90;;;;;;5074293;28;1000;-44
2022/03/17 12:23:37;;;;;;;;;;;22.20;51.00;;;;;;5072828;28;921;-41
2022/03/17 12:26:05;;;;;;;;;;;22.20;50.90;;;;;;5074322;28;986;-40
2022/03/17 12:28:32;;;;;;;;;;;22.20;51.00;;;;;;5074343;28;1039;-40
2022/03/17 12:31:00;;;;;;;;;;;22.10;50.90;;;;;;5073790;28;999;-42
2022/03/17 12:33:27;;;;;;;;;;;22.20;50.90;;;;;;5074056;28;1607;-42
2022/03/17 12:36:04;;;;;;;;;;;22.10;50.90;;;;;;5072998;28;1909;-39
2022/03/17 12:38:30;;;;;;;;;;;22.20;50.90;;;;;;5074771;28;968;-43
2022/03/17 12:40:57;;;;;;;;;;;22.20;51.00;;;;;;5073422;28;921;-39
2022/03/17 12:43:24;;;;;;;;;;;22.20;50.90;;;;;;5073390;28;1355;-38
2022/03/17 12:45:51;;;;;;;;;;;22.20;50.90;;;;;;5073363;28;1837;-38
2022/03/17 12:48:21;;;;;;;;;;;22.20;50.90;;;;;;5071319;28;1182;-43
2022/03/17 12:50:48;;;;;;;;;;;22.20;50.90;;;;;;5073777;28;1090;-42
2022/03/17 12:53:14;;;;;;;;;;;22.20;50.80;;;;;;5071490;28;1000;-41
2022/03/17 12:55:41;;;;;;;;;;;22.20;50.90;;;;;;5072145;28;1913;-42
2022/03/17 12:58:08;;;;;;;;;;;22.20;50.90;;;;;;5072060;28;996;-39
2022/03/17 13:00:41;;;;;;;;;;;22.20;50.90;;;;;;5072130;28;1001;-42
2022/03/17 13:03:07;;;;;;;;;;;22.20;50.90;;;;;;5072435;28;1009;-41
2022/03/17 13:08:19;;;;;;;;;;;22.20;51.00;;;;;;5072341;28;971;-39
2022/03/17 13:16:16;;;;;;;;;;;22.10;51.00;;;;;;5072870;28;1906;-42
2022/03/17 13:18:44;;;;;;;;;;;22.10;51.00;;;;;;5073302;28;991;-41
2022/03/17 13:21:12;;;;;;;;;;;22.10;51.00;;;;;;5071847;28;1043;-38
2022/03/17 13:23:39;;;;;;;;;;;22.10;51.00;;;;;;5072776;28;1004;-41
2022/03/17 13:26:06;;;;;;;;;;;22.20;51.00;;;;;;5071902;28;1039;-39
2022/03/17 13:28:33;;;;;;;;;;;22.10;50.90;;;;;;5072034;28;893;-41
2022/03/17 13:31:00;;;;;;;;;;;22.10;51.00;;;;;;5072434;28;997;-39
2022/03/17 13:33:27;;;;;;;;;;;22.10;50.90;;;;;;5072557;28;1021;-38
2022/03/17 13:35:54;;;;;;;;;;;22.20;50.90;;;;;;5070281;28;1901;-38
2022/03/17 13:38:29;;;;;;;;;;;22.20;50.90;;;;;;5073399;28;999;-41
2022/03/17 13:40:57;;;;;;;;;;;22.20;50.90;;;;;;5072046;28;961;-41
2022/03/17 13:43:26;;;;;;;;;;;22.20;50.80;;;;;;5072935;28;2075;-41
2022/03/17 13:45:53;;;;;;;;;;;22.20;50.80;;;;;;5073590;28;854;-39
2022/03/17 13:48:21;;;;;;;;;;;22.20;50.70;;;;;;5071787;28;960;-38
2022/03/17 13:50:52;;;;;;;;;;;22.20;50.70;;;;;;5073024;28;1036;-42
2022/03/17 13:53:25;;;;;;;;;;;22.20;50.70;;;;;;5071281;28;993;-37
2022/03/17 13:55:55;;;;;;;;;;;22.20;50.70;;;;;;5072616;28;1984;-40
2022/03/17 13:58:22;;;;;;;;;;;22.20;50.70;;;;;;5071990;28;1116;-38
2022/03/17 14:00:51;;;;;;;;;;;22.20;50.60;;;;;;5073315;28;1024;-39
2022/03/17 14:03:19;;;;;;;;;;;22.20;50.50;;;;;;5072803;28;911;-41
2022/03/17 14:06:02;;;;;;;;;;;22.20;50.50;;;;;;5088168;28;1400;-40
2022/03/17 14:08:29;;;;;;;;;;;22.20;50.60;;;;;;5092778;28;992;-41
2022/03/17 14:10:57;;;;;;;;;;;22.20;50.50;;;;;;5092714;28;1020;-39
2022/03/17 14:13:24;;;;;;;;;;;22.20;50.60;;;;;;5093094;28;1032;-41
2022/03/17 14:15:51;;;;;;;;;;;22.10;50.60;;;;;;5092391;28;1008;-40
2022/03/17 14:18:19;;;;;;;;;;;22.20;50.50;;;;;;5093133;28;1008;-38
2022/03/17 14:20:46;;;;;;;;;;;22.20;50.60;;;;;;5093653;28;955;-39
2022/03/17 14:25:58;;;;;;;;;;;22.20;50.70;;;;;;5094082;28;641;-41
2022/03/17 14:28:25;;;;;;;;;;;22.10;50.60;;;;;;5094146;28;1125;-39
2022/03/17 14:30:51;;;;;;;;;;;22.20;50.70;;;;;;5094924;28;992;-40
2022/03/17 14:33:18;;;;;;;;;;;22.10;50.60;;;;;;5094180;28;1032;-39
2022/03/17 14:35:46;;;;;;;;;;;22.20;50.60;;;;;;5092502;28;936;-40
2022/03/17 14:38:12;;;;;;;;;;;22.20;50.50;;;;;;5092509;28;1913;-42
2022/03/17 14:40:40;;;;;;;;;;;22.20;50.50;;;;;;5092670;28;943;-40
2022/03/17 14:43:08;;;;;;;;;;;22.20;50.50;;;;;;5092211;28;984;-41
2022/03/17 14:45:35;;;;;;;;;;;22.20;50.50;;;;;;5093579;28;968;-42
2022/03/17 14:48:01;;;;;;;;;;;22.20;50.50;;;;;;5092917;28;1323;-41
2022/03/17 14:50:28;;;;;;;;;;;22.20;50.40;;;;;;5092265;28;1153;-38
2022/03/17 14:52:55;;;;;;;;;;;22.20;50.30;;;;;;5094113;28;976;-41
2022/03/17 14:55:22;;;;;;;;;;;22.20;50.40;;;;;;5093218;28;999;-38
2022/03/17 14:57:48;;;;;;;;;;;22.20;50.40;;;;;;5093437;28;1977;-39
2022/03/17 15:00:17;;;;;;;;;;;22.20;50.30;;;;;;5090359;28;1170;-42
2022/03/17 15:02:44;;;;;;;;;;;22.20;50.40;;;;;;5093975;28;1782;-39
2022/03/17 15:05:10;;;;;;;;;;;22.20;50.40;;;;;;5094773;28;945;-44
2022/03/17 15:07:39;;;;;;;;;;;22.20;50.30;;;;;;5092344;28;979;-44
2022/03/17 15:10:07;;;;;;;;;;;22.20;50.30;;;;;;5093303;28;940;-44